Time;durP1;ratioP1;P1;durP2;ratioP2;P2;SDS_P1;SDS_P2;PMS_P1;PMS_P2;Temp;Humidity;BMP_temperature;BMP_pressure;BME280_temperature;BME280_humidity;BME280_pressure;Samples;Min_cycle;Max_cycle;Signal;HPM_P1;HPM_P2
2022/01/24 00:01:24;;;;;;;9.05;6.03;;;;;;;;;;6161926;23;20335;-73
2022/01/24 00:03:56;;;;;;;7.45;5.68;;;;;;;;;;6162189;23;20084;-73
2022/01/24 00:06:22;;;;;;;7.50;5.18;;;;;;;;;;6161375;23;20009;-73
2022/01/24 00:08:48;;;;;;;8.50;5.88;;;;;;;;;;6162082;23;20006;-73
2022/01/24 00:11:18;;;;;;;11.32;5.72;;;;;;;;;;6151197;23;20009;-73
2022/01/24 00:14:46;;;;;;;6.88;5.45;;;;;;;;;;6161577;23;20005;-74
2022/01/24 00:27:11;;;;;;;7.57;5.57;;;;;;;;;;6161847;23;20087;-73
2022/01/24 00:29:37;;;;;;;8.95;5.90;;;;;;;;;;6161696;23;20025;-73
2022/01/24 00:32:04;;;;;;;5.57;4.50;;;;;;;;;;6162813;23;20471;-73
2022/01/24 00:34:30;;;;;;;5.65;5.05;;;;;;;;;;6161789;23;20428;-72
2022/01/24 00:36:56;;;;;;;6.60;4.65;;;;;;;;;;6162939;23;20450;-73
2022/01/24 00:39:23;;;;;;;6.70;4.90;;;;;;;;;;6161865;23;20002;-73
2022/01/24 00:46:59;;;;;;;5.93;4.63;;;;;;;;;;6161849;23;20480;-72
2022/01/24 00:54:48;;;;;;;8.32;5.32;;;;;;;;;;6160611;23;20024;-72
2022/01/24 00:57:14;;;;;;;4.82;3.92;;;;;;;;;;6162493;23;20419;-72
2022/01/24 00:59:40;;;;;;;7.68;5.13;;;;;;;;;;6149245;23;20053;-72
2022/01/24 01:02:07;;;;;;;5.28;4.20;;;;;;;;;;6162063;23;20001;-72
2022/01/24 01:04:53;;;;;;;6.20;4.50;;;;;;;;;;6161944;23;20416;-71
2022/01/24 01:07:53;;;;;;;5.38;4.70;;;;;;;;;;6151650;23;20343;-71
2022/01/24 01:18:24;;;;;;;8.00;4.18;;;;;;;;;;6161263;23;20027;-72
2022/01/24 01:23:18;;;;;;;6.25;4.35;;;;;;;;;;6161558;23;20006;-72
2022/01/24 01:25:45;;;;;;;5.28;4.07;;;;;;;;;;6162504;23;20060;-72
2022/01/24 01:28:12;;;;;;;4.85;3.80;;;;;;;;;;6162077;23;20025;-72
2022/01/24 01:30:43;;;;;;;5.28;4.60;;;;;;;;;;6161479;23;20299;-72
2022/01/24 01:38:34;;;;;;;8.95;4.43;;;;;;;;;;6162384;23;20435;-72
2022/01/24 01:57:15;;;;;;;6.18;4.22;;;;;;;;;;6162191;23;20005;-72
2022/01/24 01:59:42;;;;;;;6.93;3.97;;;;;;;;;;6152885;23;20005;-73
2022/01/24 02:02:08;;;;;;;6.10;4.57;;;;;;;;;;6162677;23;20335;-72
2022/01/24 02:04:34;;;;;;;5.15;3.92;;;;;;;;;;6164676;23;20002;-72
2022/01/24 02:07:02;;;;;;;7.53;4.38;;;;;;;;;;6163038;23;20002;-72
2022/01/24 02:09:34;;;;;;;5.60;4.13;;;;;;;;;;6162441;23;20005;-72
2022/01/24 02:12:00;;;;;;;;;;;;;;;;;;6164287;23;20393;-72
2022/01/24 02:14:34;;;;;;;6.72;4.05;;;;;;;;;;6162838;23;19942;-72
2022/01/24 02:17:05;;;;;;;7.72;4.40;;;;;;;;;;6164276;23;20455;-72
2022/01/24 02:24:31;;;;;;;5.78;4.43;;;;;;;;;;6162132;23;20056;-72
2022/01/24 02:26:58;;;;;;;5.80;4.32;;;;;;;;;;6163037;23;20009;-72
2022/01/24 02:31:55;;;;;;;6.97;4.63;;;;;;;;;;6164463;23;20015;-72
2022/01/24 02:34:23;;;;;;;8.20;4.78;;;;;;;;;;6165567;23;19997;-72
2022/01/24 02:36:50;;;;;;;5.35;3.85;;;;;;;;;;6164185;23;19998;-72
2022/01/24 02:50:05;;;;;;;6.28;4.78;;;;;;;;;;6163271;23;20104;-72
2022/01/24 02:52:31;;;;;;;7.28;4.88;;;;;;;;;;6152130;23;20068;-72
2022/01/24 02:54:57;;;;;;;7.47;6.22;;;;;;;;;;6162954;23;20001;-72
2022/01/24 02:57:24;;;;;;;8.15;6.05;;;;;;;;;;6163177;23;20323;-72
2022/01/24 02:59:50;;;;;;;8.45;6.18;;;;;;;;;;6161978;23;20029;-72
2022/01/24 03:02:16;;;;;;;7.97;5.95;;;;;;;;;;6163185;23;20363;-73
2022/01/24 03:04:42;;;;;;;6.70;5.35;;;;;;;;;;6162653;23;20415;-73
2022/01/24 03:07:08;;;;;;;7.28;5.65;;;;;;;;;;6163215;23;20024;-73
2022/01/24 03:09:35;;;;;;;9.98;6.88;;;;;;;;;;6162643;23;20037;-73
2022/01/24 03:14:29;;;;;;;8.27;6.53;;;;;;;;;;6162187;23;20010;-72
2022/01/24 03:16:55;;;;;;;12.52;6.78;;;;;;;;;;6150281;23;19994;-72
2022/01/24 03:19:21;;;;;;;8.57;6.57;;;;;;;;;;6163639;23;20010;-72
2022/01/24 03:21:48;;;;;;;8.82;6.90;;;;;;;;;;6162697;23;20013;-72
2022/01/24 03:24:14;;;;;;;10.30;6.90;;;;;;;;;;6162130;23;20419;-72
2022/01/24 03:26:40;;;;;;;10.02;6.90;;;;;;;;;;6162068;23;19998;-72
2022/01/24 03:29:07;;;;;;;8.55;6.50;;;;;;;;;;6161345;23;20312;-72
2022/01/24 03:31:34;;;;;;;9.82;6.65;;;;;;;;;;6162965;23;20343;-73
2022/01/24 03:34:00;;;;;;;9.77;6.30;;;;;;;;;;6151235;23;20101;-73
2022/01/24 03:36:26;;;;;;;10.45;7.28;;;;;;;;;;6162695;23;20005;-72
2022/01/24 03:38:52;;;;;;;9.90;6.93;;;;;;;;;;6151203;23;20013;-73
2022/01/24 03:41:18;;;;;;;9.48;7.25;;;;;;;;;;6151383;23;20002;-73
2022/01/24 03:43:44;;;;;;;10.13;7.57;;;;;;;;;;6162481;23;20006;-72
2022/01/24 03:46:36;;;;;;;11.63;7.35;;;;;;;;;;6161127;23;20099;-73
2022/01/24 03:49:09;;;;;;;10.95;7.13;;;;;;;;;;6152611;23;20010;-72
2022/01/24 03:51:35;;;;;;;11.77;8.00;;;;;;;;;;6162649;23;20080;-73
2022/01/24 03:54:02;;;;;;;12.73;8.25;;;;;;;;;;6162326;23;20004;-73
2022/01/24 03:56:28;;;;;;;10.65;7.97;;;;;;;;;;6163273;23;20498;-73
2022/01/24 03:58:54;;;;;;;13.45;7.68;;;;;;;;;;6160446;23;20021;-73
2022/01/24 04:01:20;;;;;;;12.50;7.93;;;;;;;;;;6161906;23;20354;-73
2022/01/24 04:03:46;;;;;;;10.35;7.40;;;;;;;;;;6162626;23;20099;-73
2022/01/24 04:06:14;;;;;;;10.77;7.70;;;;;;;;;;6162275;23;19998;-72
2022/01/24 04:08:40;;;;;;;10.18;7.75;;;;;;;;;;6162279;23;20006;-73
2022/01/24 04:11:11;;;;;;;12.27;8.32;;;;;;;;;;6161303;23;20014;-73
2022/01/24 04:13:40;;;;;;;10.55;7.75;;;;;;;;;;6161916;23;20004;-72
2022/01/24 04:21:21;;;;;;;14.73;9.00;;;;;;;;;;6162098;23;20020;-72
2022/01/24 04:23:53;;;;;;;10.85;7.18;;;;;;;;;;6161285;23;20024;-71
2022/01/24 04:26:19;;;;;;;10.98;7.38;;;;;;;;;;6162422;23;20012;-73
2022/01/24 04:28:45;;;;;;;10.35;7.68;;;;;;;;;;6161631;23;20509;-74
2022/01/24 04:31:11;;;;;;;11.38;8.00;;;;;;;;;;6161405;23;20125;-74
2022/01/24 04:33:37;;;;;;;12.85;8.40;;;;;;;;;;6162760;23;20005;-74
2022/01/24 04:36:03;;;;;;;11.32;7.40;;;;;;;;;;6161933;23;20005;-74
2022/01/24 04:38:29;;;;;;;10.32;7.72;;;;;;;;;;6162634;23;20335;-74
2022/01/24 04:41:02;;;;;;;11.35;7.90;;;;;;;;;;6159845;23;20002;-74
2022/01/24 04:46:48;;;;;;;11.35;7.30;;;;;;;;;;6162378;23;20523;-74
2022/01/24 04:54:42;;;;;;;10.10;7.50;;;;;;;;;;6162807;23;20006;-75
2022/01/24 04:57:13;;;;;;;11.18;8.07;;;;;;;;;;6162104;23;20025;-75
2022/01/24 04:59:39;;;;;;;11.15;7.15;;;;;;;;;;6161710;23;20012;-75
2022/01/24 05:02:06;;;;;;;11.35;7.40;;;;;;;;;;6162704;23;20005;-74
2022/01/24 05:04:32;;;;;;;9.80;7.43;;;;;;;;;;6162053;23;20288;-75
2022/01/24 05:06:58;;;;;;;10.88;7.13;;;;;;;;;;6162617;23;20374;-74
2022/01/24 05:09:25;;;;;;;12.30;7.35;;;;;;;;;;6161036;23;20092;-75
2022/01/24 05:11:58;;;;;;;10.13;7.05;;;;;;;;;;6161800;23;20014;-74
2022/01/24 05:25:22;;;;;;;10.05;7.60;;;;;;;;;;6159458;23;20036;-72
2022/01/24 05:27:48;;;;;;;13.25;7.95;;;;;;;;;;6163844;23;20036;-72
2022/01/24 05:30:16;;;;;;;10.25;7.97;;;;;;;;;;6162917;23;20010;-72
2022/01/24 05:32:42;;;;;;;13.73;8.15;;;;;;;;;;6164243;23;20019;-74
2022/01/24 05:35:08;;;;;;;10.23;7.38;;;;;;;;;;6164083;23;20322;-74
2022/01/24 05:37:34;;;;;;;11.00;7.45;;;;;;;;;;6163010;23;20011;-74
2022/01/24 05:40:01;;;;;;;12.48;7.45;;;;;;;;;;6162928;23;19998;-74
2022/01/24 05:42:27;;;;;;;11.98;7.80;;;;;;;;;;6152175;23;20002;-74
2022/01/24 05:44:53;;;;;;;13.10;7.30;;;;;;;;;;6163741;23;20009;-74
2022/01/24 05:47:19;;;;;;;15.10;7.85;;;;;;;;;;6163397;23;20411;-74
2022/01/24 05:49:45;;;;;;;13.43;7.97;;;;;;;;;;6163376;23;19997;-74
2022/01/24 05:52:12;;;;;;;11.75;7.70;;;;;;;;;;6162315;23;19994;-74
2022/01/24 05:54:39;;;;;;;13.73;7.78;;;;;;;;;;6162074;23;20025;-74
2022/01/24 05:57:05;;;;;;;12.68;8.40;;;;;;;;;;6163780;23;20034;-74
2022/01/24 05:59:32;;;;;;;13.05;7.90;;;;;;;;;;6162574;23;20001;-74
2022/01/24 06:01:58;;;;;;;12.70;8.30;;;;;;;;;;6164026;23;20005;-74
2022/01/24 06:04:24;;;;;;;10.27;8.65;;;;;;;;;;6163404;23;20001;-74
2022/01/24 06:06:50;;;;;;;14.32;8.57;;;;;;;;;;6128005;23;20002;-74
2022/01/24 06:09:16;;;;;;;11.65;8.32;;;;;;;;;;6162568;23;20242;-74
2022/01/24 06:11:43;;;;;;;12.15;8.73;;;;;;;;;;6162936;23;20005;-74
2022/01/24 06:14:09;;;;;;;11.50;8.25;;;;;;;;;;6164130;23;20029;-74
2022/01/24 06:16:36;;;;;;;12.82;8.73;;;;;;;;;;6163603;23;19993;-74
2022/01/24 06:19:02;;;;;;;10.85;7.68;;;;;;;;;;6163230;23;20005;-74
2022/01/24 06:21:28;;;;;;;10.90;8.50;;;;;;;;;;6162390;23;20009;-73
2022/01/24 06:23:54;;;;;;;11.15;8.07;;;;;;;;;;6160242;23;20482;-74
2022/01/24 06:26:20;;;;;;;9.43;7.03;;;;;;;;;;6163182;23;20001;-71
2022/01/24 06:28:46;;;;;;;13.38;7.97;;;;;;;;;;6161525;23;20100;-72
2022/01/24 06:31:12;;;;;;;28.83;16.23;;;;;;;;;;6151012;23;20495;-73
2022/01/24 06:33:38;;;;;;;16.65;10.20;;;;;;;;;;6152745;23;20002;-72
2022/01/24 06:36:05;;;;;;;14.02;9.18;;;;;;;;;;6152526;23;20005;-71
2022/01/24 06:38:31;;;;;;;11.95;8.43;;;;;;;;;;6161599;23;20001;-71
2022/01/24 06:40:57;;;;;;;12.35;8.18;;;;;;;;;;6161788;23;20029;-71
2022/01/24 06:43:23;;;;;;;14.48;8.65;;;;;;;;;;6163026;23;20311;-72
2022/01/24 06:45:49;;;;;;;12.23;8.30;;;;;;;;;;6162051;23;20002;-72
2022/01/24 06:48:15;;;;;;;14.98;8.52;;;;;;;;;;6162074;23;20116;-72
2022/01/24 06:50:42;;;;;;;10.88;8.15;;;;;;;;;;6163371;23;20001;-72
2022/01/24 06:53:08;;;;;;;14.95;10.95;;;;;;;;;;6158916;23;20005;-72
2022/01/24 06:55:34;;;;;;;25.48;17.45;;;;;;;;;;6163539;23;19998;-73
2022/01/24 06:58:00;;;;;;;18.70;13.18;;;;;;;;;;6162703;23;20006;-72
2022/01/24 07:00:26;;;;;;;11.32;9.07;;;;;;;;;;6162488;23;20008;-71
2022/01/24 07:02:53;;;;;;;13.45;9.50;;;;;;;;;;6163342;23;19993;-73
2022/01/24 07:05:19;;;;;;;13.25;9.38;;;;;;;;;;6161933;23;20006;-73
2022/01/24 07:07:45;;;;;;;13.30;9.15;;;;;;;;;;6162706;23;19997;-73
2022/01/24 07:10:11;;;;;;;14.70;10.02;;;;;;;;;;6161291;23;20494;-75
2022/01/24 07:12:38;;;;;;;12.10;8.85;;;;;;;;;;6163625;23;20436;-75
2022/01/24 07:15:09;;;;;;;14.85;9.95;;;;;;;;;;6150736;23;20324;-76
2022/01/24 07:20:21;;;;;;;13.48;9.90;;;;;;;;;;6153016;23;20431;-73
2022/01/24 07:22:47;;;;;;;16.20;10.02;;;;;;;;;;6162023;23;20318;-73
2022/01/24 07:25:14;;;;;;;17.58;11.35;;;;;;;;;;6162684;23;20006;-74
2022/01/24 07:27:40;;;;;;;19.02;13.00;;;;;;;;;;6161214;23;19997;-75
2022/01/24 07:30:06;;;;;;;18.55;13.63;;;;;;;;;;6162674;23;20013;-75
2022/01/24 07:32:32;;;;;;;18.15;12.07;;;;;;;;;;6162967;23;20002;-72
2022/01/24 07:34:59;;;;;;;18.63;12.40;;;;;;;;;;6161557;23;20002;-75
2022/01/24 07:37:25;;;;;;;25.77;14.10;;;;;;;;;;6162034;23;20390;-73
2022/01/24 07:39:55;;;;;;;17.55;12.50;;;;;;;;;;6162994;23;19998;-73
2022/01/24 07:42:52;;;;;;;19.92;13.20;;;;;;;;;;6162178;23;19998;-75
2022/01/24 07:45:16;;;;;;;15.95;12.07;;;;;;;;;;6152675;23;20109;-74
2022/01/24 07:47:42;;;;;;;21.30;12.68;;;;;;;;;;6161869;23;20001;-73
2022/01/24 07:50:09;;;;;;;21.00;13.05;;;;;;;;;;6152496;23;20002;-74
2022/01/24 07:52:35;;;;;;;24.25;13.75;;;;;;;;;;6162015;23;20002;-73
2022/01/24 07:55:02;;;;;;;21.77;12.70;;;;;;;;;;6150858;23;20005;-73
2022/01/24 07:57:28;;;;;;;39.72;21.05;;;;;;;;;;6162736;23;20296;-72
2022/01/24 07:59:54;;;;;;;64.72;36.97;;;;;;;;;;6161881;23;20001;-73
2022/01/24 08:02:20;;;;;;;20.98;14.20;;;;;;;;;;6161911;23;20008;-73
2022/01/24 08:04:46;;;;;;;17.80;13.38;;;;;;;;;;6160865;23;20024;-73
2022/01/24 08:07:12;;;;;;;17.77;12.40;;;;;;;;;;6162327;23;20001;-73
2022/01/24 08:09:38;;;;;;;19.45;13.68;;;;;;;;;;6161068;23;20081;-73
2022/01/24 08:12:05;;;;;;;19.23;13.70;;;;;;;;;;6160488;23;20016;-73
2022/01/24 08:14:31;;;;;;;20.17;13.95;;;;;;;;;;6162366;23;20099;-73
2022/01/24 08:16:59;;;;;;;23.35;15.20;;;;;;;;;;6158960;23;20006;-73
2022/01/24 08:19:25;;;;;;;19.90;14.85;;;;;;;;;;6161789;23;20019;-73
2022/01/24 08:21:51;;;;;;;22.83;13.88;;;;;;;;;;6162397;23;20024;-73
2022/01/24 08:24:17;;;;;;;20.33;14.48;;;;;;;;;;6160466;23;20029;-72
2022/01/24 08:26:43;;;;;;;18.42;13.50;;;;;;;;;;6162988;23;20002;-73
2022/01/24 08:29:09;;;;;;;21.35;13.82;;;;;;;;;;6147790;23;20020;-73
2022/01/24 08:31:37;;;;;;;19.15;13.25;;;;;;;;;;6160367;23;20005;-73
2022/01/24 08:34:03;;;;;;;21.88;13.93;;;;;;;;;;6162739;23;20001;-74
2022/01/24 08:36:29;;;;;;;24.63;13.75;;;;;;;;;;6160109;23;20002;-72
2022/01/24 08:39:01;;;;;;;20.92;13.68;;;;;;;;;;6160767;23;20017;-73
2022/01/24 08:41:39;;;;;;;27.75;20.02;;;;;;;;;;6159979;23;20322;-73
2022/01/24 08:45:43;;;;;;;22.40;15.88;;;;;;;;;;6160880;23;20482;-74
2022/01/24 08:46:59;;;;;;;21.90;12.93;;;;;;;;;;6149364;23;20010;-74
2022/01/24 08:49:25;;;;;;;17.73;13.02;;;;;;;;;;6160999;23;20013;-73
2022/01/24 08:51:51;;;;;;;17.52;12.68;;;;;;;;;;6151081;23;20386;-73
2022/01/24 08:54:17;;;;;;;19.30;13.63;;;;;;;;;;6161902;23;20438;-73
2022/01/24 08:56:45;;;;;;;22.55;14.55;;;;;;;;;;6161553;23;20017;-73
2022/01/24 08:59:12;;;;;;;20.33;13.63;;;;;;;;;;6150468;23;20020;-75
2022/01/24 09:01:38;;;;;;;20.83;13.23;;;;;;;;;;6162953;23;19994;-73
2022/01/24 09:04:05;;;;;;;21.10;14.73;;;;;;;;;;6164725;23;20189;-73
2022/01/24 09:06:31;;;;;;;21.65;14.30;;;;;;;;;;6152059;23;20324;-73
2022/01/24 09:09:03;;;;;;;21.27;14.93;;;;;;;;;;6128916;23;20084;-73
2022/01/24 09:11:30;;;;;;;25.42;15.88;;;;;;;;;;6163476;23;20008;-74
2022/01/24 09:13:57;;;;;;;21.42;14.90;;;;;;;;;;6163641;23;20012;-74
2022/01/24 09:16:23;;;;;;;23.52;14.40;;;;;;;;;;6152287;23;20463;-73
2022/01/24 09:18:50;;;;;;;21.70;14.98;;;;;;;;;;6161010;23;20009;-73
2022/01/24 09:21:16;;;;;;;20.10;14.23;;;;;;;;;;6158747;23;20013;-74
2022/01/24 09:23:42;;;;;;;28.13;17.20;;;;;;;;;;6163236;23;20056;-74
2022/01/24 09:26:08;;;;;;;23.67;15.60;;;;;;;;;;6151467;23;20053;-74
2022/01/24 09:28:34;;;;;;;24.88;15.70;;;;;;;;;;6164040;23;20009;-74
2022/01/24 09:31:01;;;;;;;21.23;15.05;;;;;;;;;;6162400;23;19997;-74
2022/01/24 09:33:27;;;;;;;23.88;15.98;;;;;;;;;;6164304;23;19998;-74
2022/01/24 09:35:58;;;;;;;26.25;16.58;;;;;;;;;;6162991;23;20076;-74
2022/01/24 09:38:25;;;;;;;24.35;16.73;;;;;;;;;;6163758;23;20619;-74
2022/01/24 09:40:51;;;;;;;26.83;17.55;;;;;;;;;;6152194;23;20079;-74
2022/01/24 09:43:17;;;;;;;26.35;17.92;;;;;;;;;;6162916;23;20398;-74
2022/01/24 09:45:43;;;;;;;28.98;17.77;;;;;;;;;;6163156;23;20008;-73
2022/01/24 09:48:10;;;;;;;27.13;18.40;;;;;;;;;;6160602;23;20009;-73
2022/01/24 09:50:36;;;;;;;27.58;17.20;;;;;;;;;;6163407;23;20005;-73
2022/01/24 09:53:03;;;;;;;28.17;17.80;;;;;;;;;;6162334;23;20489;-73
2022/01/24 09:55:29;;;;;;;27.38;18.60;;;;;;;;;;6163383;23;20005;-73
2022/01/24 09:57:55;;;;;;;28.02;17.17;;;;;;;;;;6163567;23;20036;-73
2022/01/24 10:00:22;;;;;;;30.27;18.40;;;;;;;;;;6163337;23;20002;-73
2022/01/24 10:02:50;;;;;;;27.45;18.38;;;;;;;;;;6163743;23;20362;-73
2022/01/24 10:05:18;;;;;;;28.80;18.52;;;;;;;;;;6160949;23;20009;-73
2022/01/24 10:07:54;;;;;;;29.30;18.05;;;;;;;;;;6163611;23;20037;-73
2022/01/24 10:10:28;;;;;;;35.80;19.33;;;;;;;;;;6163909;23;20002;-73
2022/01/24 10:18:07;;;;;;;28.17;18.77;;;;;;;;;;6161758;23;20047;-74
2022/01/24 10:20:34;;;;;;;28.95;17.80;;;;;;;;;;6151382;23;20006;-73
2022/01/24 10:23:06;;;;;;;26.67;17.45;;;;;;;;;;6161925;23;20347;-74
2022/01/24 10:25:33;;;;;;;28.85;17.88;;;;;;;;;;6162249;23;20082;-73
2022/01/24 10:28:05;;;;;;;28.77;17.75;;;;;;;;;;6152149;23;20001;-73
2022/01/24 10:30:31;;;;;;;;;;;;;;;;;;6163315;23;20012;-73
2022/01/24 10:33:00;;;;;;;31.42;20.23;;;;;;;;;;6151542;23;19928;-73
2022/01/24 10:35:26;;;;;;;32.80;20.35;;;;;;;;;;6151977;23;20427;-72
2022/01/24 10:38:14;;;;;;;34.78;22.02;;;;;;;;;;6161130;23;20005;-74
2022/01/24 10:40:48;;;;;;;34.90;22.38;;;;;;;;;;6153028;23;20052;-74
2022/01/24 10:43:22;;;;;;;38.72;23.77;;;;;;;;;;6150801;23;19997;-73
2022/01/24 10:45:49;;;;;;;41.30;22.88;;;;;;;;;;6151010;23;20008;-73
2022/01/24 10:48:20;;;;;;;39.95;22.88;;;;;;;;;;6163095;23;20391;-73
2022/01/24 10:50:46;;;;;;;37.33;23.77;;;;;;;;;;6162530;23;20323;-73
2022/01/24 10:53:14;;;;;;;39.83;24.60;;;;;;;;;;6162556;23;20005;-73
2022/01/24 10:55:41;;;;;;;62.03;33.40;;;;;;;;;;6150923;23;20072;-73
2022/01/24 10:58:16;;;;;;;39.30;25.30;;;;;;;;;;6162931;23;20005;-74
2022/01/24 11:00:43;;;;;;;39.95;23.90;;;;;;;;;;6161706;23;20133;-74
2022/01/24 11:03:19;;;;;;;40.80;24.50;;;;;;;;;;6162021;23;20075;-73
2022/01/24 11:05:46;;;;;;;41.20;26.80;;;;;;;;;;6163105;23;19993;-73
2022/01/24 11:08:16;;;;;;;41.92;25.42;;;;;;;;;;6162815;23;20006;-73
2022/01/24 11:10:45;;;;;;;45.10;25.60;;;;;;;;;;6150998;23;20006;-73
2022/01/24 11:13:11;;;;;;;41.63;25.65;;;;;;;;;;6163700;23;20007;-74
2022/01/24 11:15:40;;;;;;;37.35;24.05;;;;;;;;;;6162150;23;20040;-73
2022/01/24 11:18:06;;;;;;;47.08;26.70;;;;;;;;;;6151452;23;20021;-72
2022/01/24 11:20:34;;;;;;;41.53;25.58;;;;;;;;;;6159949;23;20001;-73
2022/01/24 11:23:01;;;;;;;36.95;22.80;;;;;;;;;;6127046;23;20138;-73
2022/01/24 11:25:38;;;;;;;32.53;21.27;;;;;;;;;;6162657;23;20058;-72
2022/01/24 11:28:04;;;;;;;30.52;20.85;;;;;;;;;;6162128;23;20001;-73
2022/01/24 11:30:37;;;;;;;34.47;21.20;;;;;;;;;;6151298;23;20477;-75
2022/01/24 11:33:09;;;;;;;29.98;18.55;;;;;;;;;;6161493;23;20005;-73
2022/01/24 11:35:40;;;;;;;30.30;19.27;;;;;;;;;;6162218;23;20029;-73
2022/01/24 11:38:25;;;;;;;28.88;18.38;;;;;;;;;;6162880;23;20025;-73
2022/01/24 11:40:57;;;;;;;30.02;20.63;;;;;;;;;;6162254;23;20002;-73
2022/01/24 11:43:33;;;;;;;32.60;21.30;;;;;;;;;;6163330;23;20044;-72
2022/01/24 11:46:06;;;;;;;36.67;20.77;;;;;;;;;;6163547;23;20489;-73
2022/01/24 11:48:33;;;;;;;33.50;19.98;;;;;;;;;;6150441;23;20043;-72
2022/01/24 11:51:03;;;;;;;30.08;19.25;;;;;;;;;;6152326;23;20516;-72
2022/01/24 11:53:33;;;;;;;29.02;18.88;;;;;;;;;;6152134;23;20479;-73
2022/01/24 11:56:18;;;;;;;30.25;18.60;;;;;;;;;;6162479;23;20609;-72
2022/01/24 11:58:45;;;;;;;32.80;18.88;;;;;;;;;;6162097;23;20005;-72
2022/01/24 12:01:18;;;;;;;29.45;18.23;;;;;;;;;;6162081;23;20335;-72
2022/01/24 12:03:52;;;;;;;26.98;17.73;;;;;;;;;;6150831;23;20016;-72
2022/01/24 12:06:20;;;;;;;29.15;18.08;;;;;;;;;;6149955;23;20056;-72
2022/01/24 12:08:51;;;;;;;27.85;17.80;;;;;;;;;;6161905;23;20423;-73
2022/01/24 12:11:31;;;;;;;33.92;19.23;;;;;;;;;;6159914;23;20002;-73
2022/01/24 12:14:02;;;;;;;30.50;19.55;;;;;;;;;;6149440;23;20001;-73
2022/01/24 12:16:36;;;;;;;28.65;18.10;;;;;;;;;;6163443;23;19997;-73
2022/01/24 12:19:03;;;;;;;29.15;18.70;;;;;;;;;;6151266;23;20013;-73
2022/01/24 12:21:30;;;;;;;29.23;17.80;;;;;;;;;;6149995;23;20013;-73
2022/01/24 12:23:58;;;;;;;28.45;17.88;;;;;;;;;;6162980;23;20331;-73
2022/01/24 12:26:26;;;;;;;32.10;19.63;;;;;;;;;;6152323;23;20025;-73
2022/01/24 12:28:58;;;;;;;33.45;17.48;;;;;;;;;;6151534;23;20016;-73
2022/01/24 12:31:27;;;;;;;29.67;17.77;;;;;;;;;;6162635;23;20032;-73
2022/01/24 12:33:53;;;;;;;32.92;18.50;;;;;;;;;;6163138;23;20000;-73
2022/01/24 12:36:47;;;;;;;28.05;18.80;;;;;;;;;;6151192;23;20001;-73
2022/01/24 12:39:13;;;;;;;31.33;17.50;;;;;;;;;;6162397;23;20001;-73
2022/01/24 12:41:46;;;;;;;27.30;18.08;;;;;;;;;;6151535;23;20002;-73
2022/01/24 12:46:58;;;;;;;27.75;17.42;;;;;;;;;;6130829;23;19931;-73
2022/01/24 12:49:27;;;;;;;29.25;18.52;;;;;;;;;;6162760;23;20013;-73
2022/01/24 12:51:53;;;;;;;28.48;17.77;;;;;;;;;;6161676;23;20001;-73
2022/01/24 12:54:19;;;;;;;29.02;18.10;;;;;;;;;;6150660;23;20100;-73
2022/01/24 12:56:45;;;;;;;31.30;19.17;;;;;;;;;;6162798;23;19998;-73
2022/01/24 12:59:12;;;;;;;28.30;17.98;;;;;;;;;;6162097;23;20009;-73
2022/01/24 13:01:38;;;;;;;29.55;19.45;;;;;;;;;;6151932;23;20002;-73
2022/01/24 13:04:08;;;;;;;31.48;20.05;;;;;;;;;;6162397;23;20033;-73
2022/01/24 13:06:35;;;;;;;37.38;22.15;;;;;;;;;;6163205;23;19994;-73
2022/01/24 13:09:04;;;;;;;40.22;22.17;;;;;;;;;;6150498;23;20450;-73
2022/01/24 13:11:30;;;;;;;31.08;19.98;;;;;;;;;;6161479;23;20100;-73
2022/01/24 13:14:06;;;;;;;43.20;24.00;;;;;;;;;;6163101;23;20016;-73
2022/01/24 13:22:16;;;;;;;34.20;21.70;;;;;;;;;;6162991;23;20068;-73
2022/01/24 13:25:00;;;;;;;31.58;19.10;;;;;;;;;;6150748;23;20018;-74
2022/01/24 13:27:36;;;;;;;34.90;20.45;;;;;;;;;;6162236;23;20121;-73
2022/01/24 13:30:04;;;;;;;32.72;18.92;;;;;;;;;;6162692;23;20005;-73
2022/01/24 13:32:42;;;;;;;32.88;20.00;;;;;;;;;;6162206;23;20089;-73
2022/01/24 13:35:14;;;;;;;32.88;20.48;;;;;;;;;;6162383;23;20415;-73
2022/01/24 13:37:40;;;;;;;30.08;20.13;;;;;;;;;;6162162;23;20002;-73
2022/01/24 13:40:07;;;;;;;38.65;23.20;;;;;;;;;;6161982;23;19997;-73
2022/01/24 13:42:36;;;;;;;36.58;21.75;;;;;;;;;;6162571;23;20011;-73
2022/01/24 13:45:03;;;;;;;38.33;23.38;;;;;;;;;;6162267;23;20005;-73
2022/01/24 13:47:29;;;;;;;38.90;23.13;;;;;;;;;;6163356;23;19997;-73
2022/01/24 13:49:55;;;;;;;37.03;22.50;;;;;;;;;;6162626;23;20033;-73
2022/01/24 13:52:24;;;;;;;36.53;22.52;;;;;;;;;;6164061;23;20002;-73
2022/01/24 13:54:50;;;;;;;32.35;21.35;;;;;;;;;;6152552;23;20076;-73
2022/01/24 13:57:17;;;;;;;37.97;23.33;;;;;;;;;;6163909;23;20009;-73
2022/01/24 13:59:43;;;;;;;33.65;22.98;;;;;;;;;;6163498;23;20291;-73
2022/01/24 14:02:12;;;;;;;35.20;20.90;;;;;;;;;;6163686;23;20005;-73
2022/01/24 14:04:41;;;;;;;30.13;19.73;;;;;;;;;;6164022;23;20020;-73
2022/01/24 14:07:07;;;;;;;35.17;22.15;;;;;;;;;;6152672;23;19997;-73
2022/01/24 14:09:35;;;;;;;39.20;22.73;;;;;;;;;;6163183;23;20005;-73
2022/01/24 14:12:01;;;;;;;40.72;24.63;;;;;;;;;;6152397;23;20052;-73
2022/01/24 14:14:38;;;;;;;39.45;24.30;;;;;;;;;;6163343;23;19993;-73
2022/01/24 14:17:21;;;;;;;43.85;24.63;;;;;;;;;;6161843;23;20526;-73
2022/01/24 14:19:54;;;;;;;38.80;23.33;;;;;;;;;;6162810;23;20327;-73
2022/01/24 14:22:20;;;;;;;;;;;;;;;;;;6162488;23;20013;-73
2022/01/24 14:24:46;;;;;;;41.38;22.10;;;;;;;;;;6163747;23;19947;-73
2022/01/24 14:27:12;;;;;;;36.63;22.88;;;;;;;;;;6150409;23;20462;-73
2022/01/24 14:29:39;;;;;;;37.35;23.00;;;;;;;;;;6162197;23;20359;-73
2022/01/24 14:32:13;;;;;;;33.67;21.42;;;;;;;;;;6163685;23;20013;-73
2022/01/24 14:34:39;;;;;;;33.17;20.38;;;;;;;;;;6163250;23;20052;-73
2022/01/24 14:37:06;;;;;;;35.15;22.02;;;;;;;;;;6163877;23;20003;-74
2022/01/24 14:39:42;;;;;;;36.38;22.38;;;;;;;;;;6163047;23;20052;-73
2022/01/24 14:42:12;;;;;;;32.75;21.67;;;;;;;;;;6162592;23;20064;-73
2022/01/24 14:44:53;;;;;;;39.72;22.80;;;;;;;;;;6159007;23;19998;-72
2022/01/24 14:47:22;;;;;;;79.70;47.60;;;;;;;;;;6162084;23;20009;-73
2022/01/24 14:49:48;;;;;;;39.85;24.88;;;;;;;;;;6162593;23;20435;-73
2022/01/24 14:52:18;;;;;;;44.08;26.52;;;;;;;;;;6162580;23;20048;-73
2022/01/24 14:54:44;;;;;;;54.30;32.22;;;;;;;;;;6163197;23;20036;-73
2022/01/24 14:57:12;;;;;;;53.95;31.52;;;;;;;;;;6162720;23;20067;-73
2022/01/24 14:59:42;;;;;;;35.80;22.92;;;;;;;;;;6162584;23;20386;-73
2022/01/24 15:02:08;;;;;;;43.22;25.20;;;;;;;;;;6151576;23;20008;-73
2022/01/24 15:04:34;;;;;;;35.92;22.77;;;;;;;;;;6162680;23;19997;-74
2022/01/24 15:07:00;;;;;;;36.15;22.95;;;;;;;;;;6163168;23;20001;-73
2022/01/24 15:09:28;;;;;;;41.08;24.95;;;;;;;;;;6162756;23;20005;-73
2022/01/24 15:11:56;;;;;;;34.65;22.27;;;;;;;;;;6162648;23;20001;-74
2022/01/24 15:14:33;;;;;;;45.08;25.75;;;;;;;;;;6162339;23;20052;-73
2022/01/24 15:25:43;;;;;;;32.17;20.65;;;;;;;;;;6161972;23;20347;-74
2022/01/24 15:27:52;;;;;;;32.72;18.90;;;;;;;;;;6145312;23;20002;-74
2022/01/24 15:30:20;;;;;;;31.67;18.88;;;;;;;;;;6162250;23;20229;-74
2022/01/24 15:32:46;;;;;;;33.10;20.73;;;;;;;;;;6163215;23;19997;-74
2022/01/24 15:35:16;;;;;;;33.90;20.73;;;;;;;;;;6162668;23;20473;-74
2022/01/24 15:37:42;;;;;;;30.95;19.45;;;;;;;;;;6152752;23;20009;-74
2022/01/24 15:40:09;;;;;;;28.95;18.75;;;;;;;;;;6161932;23;20330;-74
2022/01/24 15:47:55;;;;;;;29.15;18.13;;;;;;;;;;6162882;23;20019;-74
2022/01/24 15:50:25;;;;;;;30.70;19.27;;;;;;;;;;6162528;23;19998;-74
2022/01/24 15:52:52;;;;;;;30.98;19.40;;;;;;;;;;6163263;23;20004;-74
2022/01/24 15:55:24;;;;;;;32.42;19.13;;;;;;;;;;6162123;23;20435;-74
2022/01/24 15:57:50;;;;;;;33.58;19.73;;;;;;;;;;6162539;23;20001;-74
2022/01/24 16:00:20;;;;;;;36.60;22.50;;;;;;;;;;6162117;23;19998;-74
2022/01/24 16:02:47;;;;;;;38.42;22.90;;;;;;;;;;6162456;23;20088;-74
2022/01/24 16:05:15;;;;;;;38.85;24.27;;;;;;;;;;6152444;23;20020;-74
2022/01/24 16:07:41;;;;;;;37.42;22.92;;;;;;;;;;6162699;23;20304;-74
2022/01/24 16:10:10;;;;;;;38.97;23.13;;;;;;;;;;6160636;23;20014;-75
2022/01/24 16:12:37;;;;;;;38.33;22.98;;;;;;;;;;6160145;23;20397;-74
2022/01/24 16:15:03;;;;;;;39.95;24.30;;;;;;;;;;6149575;23;20327;-74
2022/01/24 16:17:29;;;;;;;45.80;27.30;;;;;;;;;;6163065;23;20164;-74
2022/01/24 16:19:56;;;;;;;42.00;23.40;;;;;;;;;;6159015;23;20006;-75
2022/01/24 16:23:27;;;;;;;37.88;24.60;;;;;;;;;;6160413;23;20014;-75
2022/01/24 16:28:04;;;;;;;51.50;25.90;;;;;;;;;;6161869;23;20017;-74
2022/01/24 16:30:30;;;;;;;40.17;25.48;;;;;;;;;;6162063;23;20024;-74
2022/01/24 16:33:00;;;;;;;42.90;25.38;;;;;;;;;;6160961;23;20025;-74
2022/01/24 16:35:26;;;;;;;36.35;22.08;;;;;;;;;;6161397;23;20002;-74
2022/01/24 16:37:52;;;;;;;36.55;22.45;;;;;;;;;;6162462;23;20005;-74
2022/01/24 16:40:26;;;;;;;37.70;22.98;;;;;;;;;;6162096;23;19998;-74
2022/01/24 16:48:18;;;;;;;39.45;22.75;;;;;;;;;;6161829;23;20405;-74
2022/01/24 16:50:45;;;;;;;38.20;22.65;;;;;;;;;;6162310;23;19997;-74